sensor_id;sensor_type;location;lat;lon;timestamp;pressure;altitude;pressure_sealevel;temperature;humidity
25664;BME280;13522;50.018;20.014;2023-02-21T00:03:11;98103.95;;;10.42;81.60
25664;BME280;13522;50.018;20.014;2023-02-21T00:06:38;98091.35;;;10.44;82.02
25664;BME280;13522;50.018;20.014;2023-02-21T00:10:05;98104.95;;;10.41;82.01
25664;BME280;13522;50.018;20.014;2023-02-21T00:13:36;98103.27;;;10.40;82.04
25664;BME280;13522;50.018;20.014;2023-02-21T00:17:03;98102.30;;;10.41;82.08
25664;BME280;13522;50.018;20.014;2023-02-21T00:20:31;98122.86;;;10.39;81.75
25664;BME280;13522;50.018;20.014;2023-02-21T00:23:58;98100.95;;;10.37;81.80
25664;BME280;13522;50.018;20.014;2023-02-21T00:27:25;98101.92;;;10.36;82.58
25664;BME280;13522;50.018;20.014;2023-02-21T00:30:51;98106.56;;;10.34;83.26
25664;BME280;13522;50.018;20.014;2023-02-21T00:34:18;98102.25;;;10.33;82.64
25664;BME280;13522;50.018;20.014;2023-02-21T00:37:45;98092.94;;;10.29;83.31
25664;BME280;13522;50.018;20.014;2023-02-21T00:41:14;98097.41;;;10.28;83.27
25664;BME280;13522;50.018;20.014;2023-02-21T00:44:41;98092.27;;;10.27;83.14
25664;BME280;13522;50.018;20.014;2023-02-21T00:48:07;98085.98;;;10.28;82.32
25664;BME280;13522;50.018;20.014;2023-02-21T00:51:34;98089.78;;;10.25;82.90
25664;BME280;13522;50.018;20.014;2023-02-21T00:55:00;98082.66;;;10.26;82.57
25664;BME280;13522;50.018;20.014;2023-02-21T00:58:27;98094.92;;;10.27;81.88
25664;BME280;13522;50.018;20.014;2023-02-21T01:01:54;98095.59;;;10.29;81.57
25664;BME280;13522;50.018;20.014;2023-02-21T01:05:20;98082.33;;;10.29;81.30
25664;BME280;13522;50.018;20.014;2023-02-21T01:08:47;98080.81;;;10.26;82.08
25664;BME280;13522;50.018;20.014;2023-02-21T01:12:15;98080.98;;;10.25;81.82
25664;BME280;13522;50.018;20.014;2023-02-21T01:15:42;98108.19;;;10.27;81.68
25664;BME280;13522;50.018;20.014;2023-02-21T01:19:10;98074.83;;;10.24;81.80
25664;BME280;13522;50.018;20.014;2023-02-21T01:22:38;98085.27;;;10.18;83.57
25664;BME280;13522;50.018;20.014;2023-02-21T01:26:07;98075.80;;;10.15;83.18
25664;BME280;13522;50.018;20.014;2023-02-21T01:29:35;98075.28;;;10.12;83.28
25664;BME280;13522;50.018;20.014;2023-02-21T01:33:01;98073.90;;;10.08;84.02
25664;BME280;13522;50.018;20.014;2023-02-21T01:36:28;98085.48;;;10.07;84.11
25664;BME280;13522;50.018;20.014;2023-02-21T01:39:54;98084.97;;;10.03;84.41
25664;BME280;13522;50.018;20.014;2023-02-21T01:43:23;98081.80;;;10.00;85.41
25664;BME280;13522;50.018;20.014;2023-02-21T01:46:50;98075.82;;;9.98;84.98
25664;BME280;13522;50.018;20.014;2023-02-21T01:50:20;98069.52;;;9.99;84.56
25664;BME280;13522;50.018;20.014;2023-02-21T01:53:50;98072.00;;;10.00;84.81
25664;BME280;13522;50.018;20.014;2023-02-21T01:57:15;98056.09;;;10.00;83.92
25664;BME280;13522;50.018;20.014;2023-02-21T02:00:43;98057.77;;;10.01;84.43
25664;BME280;13522;50.018;20.014;2023-02-21T02:04:10;98052.97;;;10.05;84.16
25664;BME280;13522;50.018;20.014;2023-02-21T02:07:37;98054.66;;;10.06;83.62
25664;BME280;13522;50.018;20.014;2023-02-21T02:11:08;98067.23;;;10.04;84.24
25664;BME280;13522;50.018;20.014;2023-02-21T02:14:56;98056.76;;;10.02;84.75
25664;BME280;13522;50.018;20.014;2023-02-21T02:18:37;98063.91;;;10.02;84.61
25664;BME280;13522;50.018;20.014;2023-02-21T02:22:19;98052.46;;;10.01;85.45
25664;BME280;13522;50.018;20.014;2023-02-21T02:26:15;98058.91;;;9.99;85.67
25664;BME280;13522;50.018;20.014;2023-02-21T02:30:06;98048.45;;;9.97;85.36
25664;BME280;13522;50.018;20.014;2023-02-21T02:37:37;98037.17;;;9.95;86.41
25664;BME280;13522;50.018;20.014;2023-02-21T02:40:57;98051.57;;;9.93;86.63
25664;BME280;13522;50.018;20.014;2023-02-21T02:44:12;98055.23;;;9.92;87.81
25664;BME280;13522;50.018;20.014;2023-02-21T02:47:30;98054.72;;;9.88;87.39
25664;BME280;13522;50.018;20.014;2023-02-21T02:50:47;98057.66;;;9.85;88.44
25664;BME280;13522;50.018;20.014;2023-02-21T02:54:01;98060.77;;;9.81;90.26
25664;BME280;13522;50.018;20.014;2023-02-21T02:57:13;98060.42;;;9.76;90.62
25664;BME280;13522;50.018;20.014;2023-02-21T03:00:26;98061.39;;;9.75;91.04
25664;BME280;13522;50.018;20.014;2023-02-21T03:03:47;98061.88;;;9.70;92.32
25664;BME280;13522;50.018;20.014;2023-02-21T03:07:12;98062.27;;;9.57;95.77
25664;BME280;13522;50.018;20.014;2023-02-21T03:10:33;98056.55;;;9.44;97.33
25664;BME280;13522;50.018;20.014;2023-02-21T03:13:53;98062.59;;;9.37;99.76
25664;BME280;13522;50.018;20.014;2023-02-21T03:17:06;98076.60;;;9.29;100.00
25664;BME280;13522;50.018;20.014;2023-02-21T03:20:22;98069.86;;;9.17;100.00
25664;BME280;13522;50.018;20.014;2023-02-21T03:23:36;98065.33;;;9.10;100.00
25664;BME280;13522;50.018;20.014;2023-02-21T03:26:52;98079.70;;;9.07;100.00
25664;BME280;13522;50.018;20.014;2023-02-21T03:30:22;98072.38;;;9.01;100.00
25664;BME280;13522;50.018;20.014;2023-02-21T03:33:36;98080.61;;;8.98;100.00
25664;BME280;13522;50.018;20.014;2023-02-21T03:36:49;98090.27;;;8.90;100.00
25664;BME280;13522;50.018;20.014;2023-02-21T03:40:02;98081.03;;;8.76;100.00
25664;BME280;13522;50.018;20.014;2023-02-21T03:43:16;98077.60;;;8.66;100.00
25664;BME280;13522;50.018;20.014;2023-02-21T03:46:30;98087.41;;;8.56;100.00
25664;BME280;13522;50.018;20.014;2023-02-21T03:49:44;98072.42;;;8.47;100.00
25664;BME280;13522;50.018;20.014;2023-02-21T03:52:56;98085.24;;;8.42;100.00
25664;BME280;13522;50.018;20.014;2023-02-21T03:56:09;98092.11;;;8.35;100.00
25664;BME280;13522;50.018;20.014;2023-02-21T03:59:32;98095.06;;;8.32;100.00
25664;BME280;13522;50.018;20.014;2023-02-21T04:02:45;98081.27;;;8.28;100.00
25664;BME280;13522;50.018;20.014;2023-02-21T04:06:05;98086.71;;;8.27;100.00
25664;BME280;13522;50.018;20.014;2023-02-21T04:09:18;98078.50;;;8.30;100.00
25664;BME280;13522;50.018;20.014;2023-02-21T04:12:31;98091.85;;;8.28;100.00
25664;BME280;13522;50.018;20.014;2023-02-21T04:15:43;98091.73;;;8.30;100.00
25664;BME280;13522;50.018;20.014;2023-02-21T04:18:55;98084.48;;;8.32;100.00
25664;BME280;13522;50.018;20.014;2023-02-21T04:22:07;98079.03;;;8.33;100.00
25664;BME280;13522;50.018;20.014;2023-02-21T04:25:20;98081.14;;;8.30;100.00
25664;BME280;13522;50.018;20.014;2023-02-21T04:28:33;98078.50;;;8.30;100.00
25664;BME280;13522;50.018;20.014;2023-02-21T04:31:46;98073.77;;;8.24;100.00
25664;BME280;13522;50.018;20.014;2023-02-21T04:34:58;98093.08;;;8.24;100.00
25664;BME280;13522;50.018;20.014;2023-02-21T04:38:11;98080.59;;;8.17;100.00
25664;BME280;13522;50.018;20.014;2023-02-21T04:41:23;98081.86;;;8.13;100.00
25664;BME280;13522;50.018;20.014;2023-02-21T04:44:36;98090.09;;;8.10;100.00
25664;BME280;13522;50.018;20.014;2023-02-21T04:47:51;98088.41;;;8.09;100.00
25664;BME280;13522;50.018;20.014;2023-02-21T04:51:03;98092.05;;;8.08;100.00
25664;BME280;13522;50.018;20.014;2023-02-21T04:54:17;98087.03;;;8.05;100.00
25664;BME280;13522;50.018;20.014;2023-02-21T04:57:29;98095.66;;;8.07;100.00
25664;BME280;13522;50.018;20.014;2023-02-21T05:00:42;98089.14;;;8.01;100.00
25664;BME280;13522;50.018;20.014;2023-02-21T05:03:54;98092.89;;;7.99;100.00
25664;BME280;13522;50.018;20.014;2023-02-21T05:07:06;98083.16;;;7.99;100.00
25664;BME280;13522;50.018;20.014;2023-02-21T05:10:18;98090.40;;;7.97;100.00
25664;BME280;13522;50.018;20.014;2023-02-21T05:13:33;98097.79;;;7.94;100.00
25664;BME280;13522;50.018;20.014;2023-02-21T05:16:44;98090.13;;;7.90;100.00
25664;BME280;13522;50.018;20.014;2023-02-21T05:19:57;98093.07;;;7.87;100.00
25664;BME280;13522;50.018;20.014;2023-02-21T05:23:09;98081.38;;;7.80;100.00
25664;BME280;13522;50.018;20.014;2023-02-21T05:26:24;98081.84;;;7.76;100.00
25664;BME280;13522;50.018;20.014;2023-02-21T05:29:38;98081.84;;;7.76;100.00
25664;BME280;13522;50.018;20.014;2023-02-21T05:32:51;98075.02;;;7.73;100.00
25664;BME280;13522;50.018;20.014;2023-02-21T05:36:04;98075.02;;;7.73;100.00
25664;BME280;13522;50.018;20.014;2023-02-21T05:39:19;98069.58;;;7.75;100.00
25664;BME280;13522;50.018;20.014;2023-02-21T05:42:31;98072.38;;;7.73;100.00
25664;BME280;13522;50.018;20.014;2023-02-21T05:45:43;98074.32;;;7.71;100.00
25664;BME280;13522;50.018;20.014;2023-02-21T05:48:57;98078.66;;;7.72;100.00
25664;BME280;13522;50.018;20.014;2023-02-21T05:52:12;98068.20;;;7.71;100.00
25664;BME280;13522;50.018;20.014;2023-02-21T05:55:26;98072.67;;;7.70;100.00
25664;BME280;13522;50.018;20.014;2023-02-21T05:58:39;98077.27;;;7.68;100.00
25664;BME280;13522;50.018;20.014;2023-02-21T06:01:53;98073.48;;;7.71;100.00
25664;BME280;13522;50.018;20.014;2023-02-21T06:05:06;98080.87;;;7.67;100.00
25664;BME280;13522;50.018;20.014;2023-02-21T06:08:20;98080.03;;;7.67;100.00
25664;BME280;13522;50.018;20.014;2023-02-21T06:11:33;98085.20;;;7.68;100.00
25664;BME280;13522;50.018;20.014;2023-02-21T06:14:47;98076.67;;;7.74;100.00
25664;BME280;13522;50.018;20.014;2023-02-21T06:17:59;98075.55;;;7.77;100.00
25664;BME280;13522;50.018;20.014;2023-02-21T06:21:11;98076.42;;;7.68;100.00
25664;BME280;13522;50.018;20.014;2023-02-21T06:24:23;98097.69;;;7.76;100.00
25664;BME280;13522;50.018;20.014;2023-02-21T06:27:35;98096.01;;;7.75;100.00
25664;BME280;13522;50.018;20.014;2023-02-21T06:30:48;98091.72;;;7.74;100.00
25664;BME280;13522;50.018;20.014;2023-02-21T06:34:01;98112.70;;;7.75;100.00
25664;BME280;13522;50.018;20.014;2023-02-21T06:37:13;98110.76;;;7.77;100.00
25664;BME280;13522;50.018;20.014;2023-02-21T06:40:25;98114.09;;;7.79;100.00
25664;BME280;13522;50.018;20.014;2023-02-21T06:43:37;98128.00;;;7.81;100.00
25664;BME280;13522;50.018;20.014;2023-02-21T06:46:50;98129.53;;;7.84;100.00
25664;BME280;13522;50.018;20.014;2023-02-21T06:50:02;98135.52;;;7.86;100.00
25664;BME280;13522;50.018;20.014;2023-02-21T06:53:15;98127.44;;;7.87;100.00
25664;BME280;13522;50.018;20.014;2023-02-21T06:56:27;98130.08;;;7.87;100.00
25664;BME280;13522;50.018;20.014;2023-02-21T06:59:40;98143.00;;;7.90;100.00
25664;BME280;13522;50.018;20.014;2023-02-21T07:02:52;98130.48;;;7.93;100.00
25664;BME280;13522;50.018;20.014;2023-02-21T07:06:04;98128.52;;;7.95;100.00
25664;BME280;13522;50.018;20.014;2023-02-21T07:09:16;98129.22;;;7.97;100.00
25664;BME280;13522;50.018;20.014;2023-02-21T07:12:29;98128.41;;;7.96;100.00
25664;BME280;13522;50.018;20.014;2023-02-21T07:15:41;98131.59;;;8.00;100.00
25664;BME280;13522;50.018;20.014;2023-02-21T07:18:53;98123.81;;;7.98;100.00
25664;BME280;13522;50.018;20.014;2023-02-21T07:22:05;98129.64;;;8.02;100.00
25664;BME280;13522;50.018;20.014;2023-02-21T07:25:20;98135.47;;;8.05;100.00
25664;BME280;13522;50.018;20.014;2023-02-21T07:28:33;98145.06;;;8.16;100.00
25664;BME280;13522;50.018;20.014;2023-02-21T07:31:45;98136.28;;;8.25;100.00
25664;BME280;13522;50.018;20.014;2023-02-21T07:34:57;98150.89;;;8.29;100.00
25664;BME280;13522;50.018;20.014;2023-02-21T07:38:09;98155.98;;;8.40;100.00
25664;BME280;13522;50.018;20.014;2023-02-21T07:41:21;98150.27;;;8.44;100.00
25664;BME280;13522;50.018;20.014;2023-02-21T07:44:34;98149.58;;;8.42;100.00
25664;BME280;13522;50.018;20.014;2023-02-21T07:47:46;98144.06;;;8.36;100.00
25664;BME280;13522;50.018;20.014;2023-02-21T07:50:59;98149.58;;;8.42;100.00
25664;BME280;13522;50.018;20.014;2023-02-21T07:54:11;98132.16;;;8.49;100.00
25664;BME280;13522;50.018;20.014;2023-02-21T07:57:23;98123.88;;;8.62;100.00
25664;BME280;13522;50.018;20.014;2023-02-21T08:00:38;98122.85;;;8.72;100.00
25664;BME280;13522;50.018;20.014;2023-02-21T08:03:50;98133.77;;;8.60;100.00
25664;BME280;13522;50.018;20.014;2023-02-21T08:07:03;98133.39;;;8.55;100.00
25664;BME280;13522;50.018;20.014;2023-02-21T08:10:20;98138.68;;;8.55;100.00
25664;BME280;13522;50.018;20.014;2023-02-21T08:13:34;98139.64;;;8.54;100.00
25664;BME280;13522;50.018;20.014;2023-02-21T08:16:46;98150.49;;;8.60;100.00
25664;BME280;13522;50.018;20.014;2023-02-21T08:19:58;98156.05;;;8.67;100.00
25664;BME280;13522;50.018;20.014;2023-02-21T08:23:10;98152.81;;;8.73;100.00
25664;BME280;13522;50.018;20.014;2023-02-21T08:26:23;98156.94;;;8.85;100.00
25664;BME280;13522;50.018;20.014;2023-02-21T08:29:35;98155.25;;;8.84;100.00
25664;BME280;13522;50.018;20.014;2023-02-21T08:32:47;98155.94;;;8.86;100.00
25664;BME280;13522;50.018;20.014;2023-02-21T08:36:00;98169.44;;;8.93;100.00
25664;BME280;13522;50.018;20.014;2023-02-21T08:39:12;98163.83;;;8.96;100.00
25664;BME280;13522;50.018;20.014;2023-02-21T08:42:24;98160.53;;;9.11;100.00
25664;BME280;13522;50.018;20.014;2023-02-21T08:45:36;98164.86;;;9.12;100.00
25664;BME280;13522;50.018;20.014;2023-02-21T08:48:48;98166.23;;;9.16;100.00
25664;BME280;13522;50.018;20.014;2023-02-21T08:52:00;98173.05;;;9.19;100.00
25664;BME280;13522;50.018;20.014;2023-02-21T08:55:12;98165.92;;;9.19;100.00
25664;BME280;13522;50.018;20.014;2023-02-21T08:58:25;98179.63;;;9.15;100.00
25664;BME280;13522;50.018;20.014;2023-02-21T09:01:37;98180.44;;;9.15;100.00
25664;BME280;13522;50.018;20.014;2023-02-21T09:04:49;98164.52;;;9.25;100.00
25664;BME280;13522;50.018;20.014;2023-02-21T09:08:02;98179.84;;;9.21;100.00
25664;BME280;13522;50.018;20.014;2023-02-21T09:11:15;98193.78;;;9.23;100.00
25664;BME280;13522;50.018;20.014;2023-02-21T09:14:27;98178.97;;;9.30;100.00
25664;BME280;13522;50.018;20.014;2023-02-21T09:17:39;98197.73;;;9.37;100.00
25664;BME280;13522;50.018;20.014;2023-02-21T09:20:51;98197.67;;;9.29;100.00
25664;BME280;13522;50.018;20.014;2023-02-21T09:24:04;98195.84;;;9.29;100.00
25664;BME280;13522;50.018;20.014;2023-02-21T09:27:16;98209.30;;;9.18;100.00
25664;BME280;13522;50.018;20.014;2023-02-21T09:30:30;98216.16;;;9.11;100.00
25664;BME280;13522;50.018;20.014;2023-02-21T09:33:43;98226.16;;;9.17;100.00
25664;BME280;13522;50.018;20.014;2023-02-21T09:36:55;98228.44;;;9.12;100.00
25664;BME280;13522;50.018;20.014;2023-02-21T09:40:14;98230.92;;;9.14;100.00
25664;BME280;13522;50.018;20.014;2023-02-21T09:43:32;98227.48;;;9.04;100.00
25664;BME280;13522;50.018;20.014;2023-02-21T09:46:47;98224.84;;;9.04;100.00
25664;BME280;13522;50.018;20.014;2023-02-21T09:50:04;98223.41;;;9.09;100.00
25664;BME280;13522;50.018;20.014;2023-02-21T09:53:23;98234.27;;;9.16;100.00
25664;BME280;13522;50.018;20.014;2023-02-21T09:56:39;98209.20;;;9.10;100.00
25664;BME280;13522;50.018;20.014;2023-02-21T09:59:51;98213.91;;;9.16;100.00
25664;BME280;13522;50.018;20.014;2023-02-21T10:03:17;98225.48;;;9.42;100.00
25664;BME280;13522;50.018;20.014;2023-02-21T10:06:51;98218.68;;;10.28;100.00
25664;BME280;13522;50.018;20.014;2023-02-21T10:10:10;98225.08;;;10.69;100.00
25664;BME280;13522;50.018;20.014;2023-02-21T10:13:37;98224.52;;;10.57;100.00
25664;BME280;13522;50.018;20.014;2023-02-21T10:16:54;98229.09;;;10.47;100.00
25664;BME280;13522;50.018;20.014;2023-02-21T10:20:14;98225.54;;;10.38;100.00
25664;BME280;13522;50.018;20.014;2023-02-21T10:23:33;98217.97;;;11.03;100.00
25664;BME280;13522;50.018;20.014;2023-02-21T10:26:51;98224.72;;;11.39;100.00
25664;BME280;13522;50.018;20.014;2023-02-21T10:30:09;98219.91;;;11.34;100.00
25664;BME280;13522;50.018;20.014;2023-02-21T10:33:24;98225.33;;;11.67;99.60
25664;BME280;13522;50.018;20.014;2023-02-21T10:36:36;98214.72;;;11.83;99.04
25664;BME280;13522;50.018;20.014;2023-02-21T10:39:51;98212.08;;;12.39;97.89
25664;BME280;13522;50.018;20.014;2023-02-21T10:43:08;98216.24;;;12.42;94.56
25664;BME280;13522;50.018;20.014;2023-02-21T10:46:26;98223.71;;;12.30;95.43
25664;BME280;13522;50.018;20.014;2023-02-21T10:49:43;98209.19;;;12.73;94.31
25664;BME280;13522;50.018;20.014;2023-02-21T10:52:57;98214.19;;;12.60;93.28
25664;BME280;13522;50.018;20.014;2023-02-21T10:56:24;98232.39;;;12.16;92.54
25664;BME280;13522;50.018;20.014;2023-02-21T10:59:40;98214.39;;;11.78;94.72
25664;BME280;13522;50.018;20.014;2023-02-21T11:03:01;98243.92;;;11.59;97.66
25664;BME280;13522;50.018;20.014;2023-02-21T11:06:25;98241.98;;;11.35;100.00
25664;BME280;13522;50.018;20.014;2023-02-21T11:09:41;98256.26;;;10.92;100.00
25664;BME280;13522;50.018;20.014;2023-02-21T11:13:05;98252.48;;;10.69;100.00
25664;BME280;13522;50.018;20.014;2023-02-21T11:16:23;98251.58;;;10.61;100.00
25664;BME280;13522;50.018;20.014;2023-02-21T11:19:46;98257.29;;;10.48;100.00
25664;BME280;13522;50.018;20.014;2023-02-21T11:23:00;98263.70;;;10.37;100.00
25664;BME280;13522;50.018;20.014;2023-02-21T11:26:15;98267.58;;;10.25;100.00
25664;BME280;13522;50.018;20.014;2023-02-21T11:29:27;98270.61;;;10.13;100.00
25664;BME280;13522;50.018;20.014;2023-02-21T11:32:40;98266.49;;;10.01;100.00
25664;BME280;13522;50.018;20.014;2023-02-21T11:36:07;98267.02;;;9.87;100.00
25664;BME280;13522;50.018;20.014;2023-02-21T11:39:24;98259.38;;;10.01;100.00
25664;BME280;13522;50.018;20.014;2023-02-21T11:42:38;98268.78;;;9.96;100.00
25664;BME280;13522;50.018;20.014;2023-02-21T11:46:09;98280.15;;;9.88;100.00
25664;BME280;13522;50.018;20.014;2023-02-21T11:49:28;98279.31;;;9.88;100.00
25664;BME280;13522;50.018;20.014;2023-02-21T11:52:45;98289.39;;;9.84;100.00
25664;BME280;13522;50.018;20.014;2023-02-21T11:56:04;98277.09;;;9.83;100.00
25664;BME280;13522;50.018;20.014;2023-02-21T11:59:26;98275.45;;;10.00;100.00
25664;BME280;13522;50.018;20.014;2023-02-21T12:02:58;98278.81;;;10.19;100.00
25664;BME280;13522;50.018;20.014;2023-02-21T12:06:20;98278.48;;;10.22;100.00
25664;BME280;13522;50.018;20.014;2023-02-21T12:09:39;98271.52;;;10.04;100.00
25664;BME280;13522;50.018;20.014;2023-02-21T12:12:57;98285.38;;;9.98;100.00
25664;BME280;13522;50.018;20.014;2023-02-21T12:16:17;98283.52;;;9.81;100.00
25664;BME280;13522;50.018;20.014;2023-02-21T12:23:24;98291.11;;;9.76;100.00
25664;BME280;13522;50.018;20.014;2023-02-21T12:26:50;98281.38;;;9.67;100.00
25664;BME280;13522;50.018;20.014;2023-02-21T12:30:23;98293.08;;;9.74;100.00
25664;BME280;13522;50.018;20.014;2023-02-21T12:33:48;98282.75;;;9.71;100.00
25664;BME280;13522;50.018;20.014;2023-02-21T12:37:21;98279.73;;;9.66;100.00
25664;BME280;13522;50.018;20.014;2023-02-21T12:40:41;98279.66;;;9.75;100.00
25664;BME280;13522;50.018;20.014;2023-02-21T12:43:58;98278.91;;;9.83;100.00
25664;BME280;13522;50.018;20.014;2023-02-21T12:47:16;98279.31;;;9.88;100.00
25664;BME280;13522;50.018;20.014;2023-02-21T12:50:32;98276.42;;;9.99;100.00
25664;BME280;13522;50.018;20.014;2023-02-21T12:53:48;98279.83;;;10.44;100.00
25664;BME280;13522;50.018;20.014;2023-02-21T12:57:06;98276.25;;;11.04;100.00
25664;BME280;13522;50.018;20.014;2023-02-21T13:00:23;98274.44;;;11.05;100.00
25664;BME280;13522;50.018;20.014;2023-02-21T13:03:43;98268.00;;;11.15;100.00
25664;BME280;13522;50.018;20.014;2023-02-21T13:07:03;98271.41;;;11.33;100.00
25664;BME280;13522;50.018;20.014;2023-02-21T13:10:29;98258.17;;;11.50;100.00
25664;BME280;13522;50.018;20.014;2023-02-21T13:13:43;98251.39;;;11.63;100.00
25664;BME280;13522;50.018;20.014;2023-02-21T13:16:56;98267.34;;;11.63;99.11
25664;BME280;13522;50.018;20.014;2023-02-21T13:20:13;98259.92;;;11.75;97.97
25664;BME280;13522;50.018;20.014;2023-02-21T13:27:45;98252.61;;;11.77;97.55
25664;BME280;13522;50.018;20.014;2023-02-21T13:31:21;98249.55;;;11.56;95.11
25664;BME280;13522;50.018;20.014;2023-02-21T13:34:40;98251.23;;;11.57;94.83
25664;BME280;13522;50.018;20.014;2023-02-21T13:37:56;98250.36;;;11.48;92.94
25664;BME280;13522;50.018;20.014;2023-02-21T13:41:10;98255.98;;;11.45;93.87
25664;BME280;13522;50.018;20.014;2023-02-21T13:44:27;98259.28;;;11.39;94.85
25664;BME280;13522;50.018;20.014;2023-02-21T13:51:50;98273.55;;;11.30;93.54
25664;BME280;13522;50.018;20.014;2023-02-21T13:55:31;98277.36;;;11.27;94.25
25664;BME280;13522;50.018;20.014;2023-02-21T13:58:44;98294.57;;;11.15;92.28
25664;BME280;13522;50.018;20.014;2023-02-21T14:02:16;98289.20;;;11.07;92.75
25664;BME280;13522;50.018;20.014;2023-02-21T14:09:35;98284.80;;;10.90;93.24
25664;BME280;13522;50.018;20.014;2023-02-21T14:12:56;98295.74;;;11.13;92.27
25664;BME280;13522;50.018;20.014;2023-02-21T14:16:17;98283.08;;;11.41;91.66
25664;BME280;13522;50.018;20.014;2023-02-21T14:19:40;98286.41;;;11.43;90.42
25664;BME280;13522;50.018;20.014;2023-02-21T14:22:53;98278.70;;;11.31;93.16
25664;BME280;13522;50.018;20.014;2023-02-21T14:26:32;98292.63;;;11.25;91.98
25664;BME280;13522;50.018;20.014;2023-02-21T14:29:40;98307.19;;;11.13;93.19
25664;BME280;13522;50.018;20.014;2023-02-21T14:32:56;98320.13;;;11.08;94.09
25664;BME280;13522;50.018;20.014;2023-02-21T14:36:11;98324.71;;;10.98;94.96
25664;BME280;13522;50.018;20.014;2023-02-21T14:39:24;98321.70;;;10.93;94.46
25664;BME280;13522;50.018;20.014;2023-02-21T14:42:51;98320.34;;;10.89;95.35
25664;BME280;13522;50.018;20.014;2023-02-21T14:46:38;98332.41;;;10.84;93.67
25664;BME280;13522;50.018;20.014;2023-02-21T14:50:18;98319.06;;;10.76;92.23
25664;BME280;13522;50.018;20.014;2023-02-21T15:01:53;98319.03;;;10.50;93.85
25664;BME280;13522;50.018;20.014;2023-02-21T15:05:11;98326.92;;;10.42;93.22
25664;BME280;13522;50.018;20.014;2023-02-21T15:08:26;98339.31;;;10.33;94.16
25664;BME280;13522;50.018;20.014;2023-02-21T15:11:40;98344.10;;;10.30;94.40
25664;BME280;13522;50.018;20.014;2023-02-21T15:14:55;98332.13;;;10.26;94.40
25664;BME280;13522;50.018;20.014;2023-02-21T15:18:09;98340.69;;;10.20;95.66
25664;BME280;13522;50.018;20.014;2023-02-21T15:21:23;98333.84;;;10.17;95.27
25664;BME280;13522;50.018;20.014;2023-02-21T15:24:36;98335.98;;;10.14;96.41
25664;BME280;13522;50.018;20.014;2023-02-21T15:28:03;98333.01;;;10.17;96.00
25664;BME280;13522;50.018;20.014;2023-02-21T15:31:18;98337.34;;;10.18;95.20
25664;BME280;13522;50.018;20.014;2023-02-21T15:34:40;98331.20;;;10.17;95.47
25664;BME280;13522;50.018;20.014;2023-02-21T15:37:48;98334.98;;;10.15;94.74
25664;BME280;13522;50.018;20.014;2023-02-21T15:41:04;98337.52;;;10.07;94.80
25664;BME280;13522;50.018;20.014;2023-02-21T15:44:21;98351.47;;;10.09;92.70
25664;BME280;13522;50.018;20.014;2023-02-21T15:47:37;98357.20;;;10.14;90.87
25664;BME280;13522;50.018;20.014;2023-02-21T15:50:50;98351.42;;;10.18;90.55
25664;BME280;13522;50.018;20.014;2023-02-21T15:54:25;98360.91;;;10.21;89.53
25664;BME280;13522;50.018;20.014;2023-02-21T15:57:39;98370.84;;;10.19;89.31
25664;BME280;13522;50.018;20.014;2023-02-21T16:01:03;98363.20;;;10.16;88.65
25664;BME280;13522;50.018;20.014;2023-02-21T16:04:22;98371.76;;;10.10;88.40
25664;BME280;13522;50.018;20.014;2023-02-21T16:07:36;98379.44;;;10.03;89.31
25664;BME280;13522;50.018;20.014;2023-02-21T16:10:51;98358.28;;;9.94;89.09
25664;BME280;13522;50.018;20.014;2023-02-21T16:14:24;98373.88;;;9.97;88.61
25664;BME280;13522;50.018;20.014;2023-02-21T16:17:43;98378.38;;;9.96;90.29
25664;BME280;13522;50.018;20.014;2023-02-21T16:21:02;98371.55;;;9.94;89.61
25664;BME280;13522;50.018;20.014;2023-02-21T16:24:29;98377.81;;;9.93;89.23
25664;BME280;13522;50.018;20.014;2023-02-21T16:27:42;98381.31;;;9.93;89.24
25664;BME280;13522;50.018;20.014;2023-02-21T16:30:56;98379.78;;;9.91;88.22
25664;BME280;13522;50.018;20.014;2023-02-21T16:34:13;98396.01;;;9.88;87.78
25664;BME280;13522;50.018;20.014;2023-02-21T16:37:25;98395.70;;;9.91;87.11
25664;BME280;13522;50.018;20.014;2023-02-21T16:40:37;98389.86;;;9.87;87.89
25664;BME280;13522;50.018;20.014;2023-02-21T16:43:50;98397.66;;;9.89;87.79
25664;BME280;13522;50.018;20.014;2023-02-21T16:47:06;98381.75;;;9.89;86.36
25664;BME280;13522;50.018;20.014;2023-02-21T16:50:23;98404.93;;;9.87;86.77
25664;BME280;13522;50.018;20.014;2023-02-21T16:53:38;98403.70;;;9.81;87.65
25664;BME280;13522;50.018;20.014;2023-02-21T16:56:52;98404.45;;;9.74;88.46
25664;BME280;13522;50.018;20.014;2023-02-21T17:00:06;98408.38;;;9.70;88.67
25664;BME280;13522;50.018;20.014;2023-02-21T17:03:19;98422.91;;;9.66;89.89
25664;BME280;13522;50.018;20.014;2023-02-21T17:06:34;98419.88;;;9.60;89.83
25664;BME280;13522;50.018;20.014;2023-02-21T17:09:47;98425.45;;;9.57;90.99
25664;BME280;13522;50.018;20.014;2023-02-21T17:13:01;98437.47;;;9.52;91.57
25664;BME280;13522;50.018;20.014;2023-02-21T17:16:14;98452.95;;;9.47;91.86
25664;BME280;13522;50.018;20.014;2023-02-21T17:19:26;98453.41;;;9.42;92.59
25664;BME280;13522;50.018;20.014;2023-02-21T17:22:38;98456.33;;;9.39;92.24
25664;BME280;13522;50.018;20.014;2023-02-21T17:25:50;98460.94;;;9.37;93.42
25664;BME280;13522;50.018;20.014;2023-02-21T17:29:31;98461.51;;;9.31;93.73
25664;BME280;13522;50.018;20.014;2023-02-21T17:32:43;98460.42;;;9.24;94.86
25664;BME280;13522;50.018;20.014;2023-02-21T17:35:56;98466.13;;;9.20;94.73
25664;BME280;13522;50.018;20.014;2023-02-21T17:39:08;98475.48;;;9.14;95.92
25664;BME280;13522;50.018;20.014;2023-02-21T17:42:21;98474.09;;;9.10;95.43
25664;BME280;13522;50.018;20.014;2023-02-21T17:45:33;98479.95;;;9.04;96.96